北海道・東北TAF電文


新千歳(RJCC)
4/24 8h
TAF RJCC 232305Z 2400/2506 16023KT 9999 FEW010 SCT025 TEMPO
2400/2406 16025G35KT TEMPO 2412/2500 14028G40KT 3000 SHRA
BR FEW002 BKN004 TEMPO 2500/2503 4000 -SHRA BR FEW003
BKN005=

旭川(RJEC)
4/24 8h
TAF RJEC 232305Z 2400/2506 19015KT 9999 FEW030 TEMPO 2418/2500 4000
-SHRA BR FEW005 BKN008 TEMPO 2503/2506 4000 -SHRA BR FEW005
BKN008=

帯広(RJCB)
4/24 8h
TAF RJCB 232305Z 2400/2506 15010KT 9999 FEW008 BKN015 TEMPO
2407/2409 FEW004 BKN006 TEMPO 2409/2418 1500 -SHRA BR
FEW001 BKN003 TEMPO 2418/2500 3000 SHRA BR FEW003 BKN005
TEMPO 2500/2506 2000 -SHRA BR FEW002 BKN004=

釧路(RJCK)
4/24 8h
TAF RJCK 232310Z 2400/2506 17011KT 9999 FEW008 BKN015 TEMPO
2412/2418 FEW005 BKN008 TEMPO 2418/2421 3000 -SHRA BR
FEW003 BKN006 TEMPO 2421/2506 1500 SHRA BR FEW001 BKN003=

女満別(RJCM)
4/24 8h
TAF RJCM 232310Z 2400/2506 18021KT 9999 FEW015 SCT030 TEMPO
2418/2500 4000 -SHRA BR FEW005 BKN008=

函館(RJCH)
4/24 10h
TAF AMD RJCH 240136Z 2401/2506 10020KT 9999 FEW008 BKN015 TEMPO
2401/2409 10025G35KT TEMPO 2409/2412 4000 -SHRA BR FEW005
BKN008 TEMPO 2412/2421 2000 SHRA BR FEW002 BKN005 BECMG
2418/2421 23012KT=

青森(RJSA)
4/24 8h
TAF RJSA 232306Z 2400/2506 04006KT 9999 FEW020 SCT050 BECMG
2400/2402 21014KT TEMPO 2412/2418 4000 -RA BR FEW005 BKN008
TEMPO 2503/2506 21022G32KT=

秋田(RJSK)
4/24 8h
TAF RJSK 232306Z 2400/2506 13018KT 9999 FEW030 TEMPO 2400/2406
13020G32KT TEMPO 2412/2418 3000 SHRA BR FEW003 BKN005 TEMPO
2418/2421 FEW005 BKN008 BECMG 2418/2421 24014KT=

花巻(RJSI)
4/24 8h
TAF RJSI 232306Z 2400/2506 16014KT 9999 FEW015 BKN030 TEMPO
2412/2421 3000 RA BR FEW003 BKN005 TEMPO 2421/2500 4000 -RA
BR FEW005 BKN008 BECMG 2500/2503 26008KT=

仙台(RJSS)
4/24 8h
TAF RJSS 232313Z 2400/2506 14015KT 8000 -RA FEW008 BKN015 TEMPO
2403/2412 FEW005 BKN008 TEMPO 2412/2415 4000 -RA BR FEW005
BKN008 TEMPO 2415/2421 3000 RA BR FEW003 BKN005 BECMG
2418/2421 32006KT=

福島(RJSF)
4/24 8h
TAF RJSF 232314Z 2400/2506 15010KT 8000 -RA FEW008 BKN015 TEMPO
2400/2411 4000 -RA BR FEW003 BKN005 TEMPO 2411/2421 1500
-RA BR FEW003 BKN005 BECMG 2415/2418 31014KT TEMPO
2500/2506 31015G25KT=
Copyright(c) 2014 International Meteorological & Oceanographic Consultants Co,.Ltd. All Rights Reserved. Design by http://f-tpl.com